sensor_id;sensor_type;location;lat;lon;timestamp;P1;durP1;ratioP1;P2;durP2;ratioP2
21771;SDS011;11047;47.904;8.110;2023-07-29T00:02:19;1.20;;;1.10;;
21771;SDS011;11047;47.904;8.110;2023-07-29T00:04:46;5.75;;;1.80;;
21771;SDS011;11047;47.904;8.110;2023-07-29T00:07:13;26.75;;;1.85;;
21771;SDS011;11047;47.904;8.110;2023-07-29T00:09:39;2.65;;;1.48;;
21771;SDS011;11047;47.904;8.110;2023-07-29T00:12:08;1.50;;;1.40;;
21771;SDS011;11047;47.904;8.110;2023-07-29T00:14:35;3.67;;;1.55;;
21771;SDS011;11047;47.904;8.110;2023-07-29T00:17:02;17.30;;;1.45;;
21771;SDS011;11047;47.904;8.110;2023-07-29T00:19:29;4.32;;;1.40;;
21771;SDS011;11047;47.904;8.110;2023-07-29T00:21:55;34.50;;;1.60;;
21771;SDS011;11047;47.904;8.110;2023-07-29T00:24:22;31.98;;;1.50;;
21771;SDS011;11047;47.904;8.110;2023-07-29T00:26:49;3.05;;;0.98;;
21771;SDS011;11047;47.904;8.110;2023-07-29T00:29:17;2.00;;;1.40;;
21771;SDS011;11047;47.904;8.110;2023-07-29T00:31:44;9.55;;;1.30;;
21771;SDS011;11047;47.904;8.110;2023-07-29T00:34:11;1.25;;;1.13;;
21771;SDS011;11047;47.904;8.110;2023-07-29T00:36:42;0.88;;;0.88;;
21771;SDS011;11047;47.904;8.110;2023-07-29T00:39:09;2.72;;;0.95;;
21771;SDS011;11047;47.904;8.110;2023-07-29T00:41:36;2.45;;;0.90;;
21771;SDS011;11047;47.904;8.110;2023-07-29T00:44:03;3.05;;;0.80;;
21771;SDS011;11047;47.904;8.110;2023-07-29T00:46:32;7.38;;;0.90;;
21771;SDS011;11047;47.904;8.110;2023-07-29T00:49:00;0.90;;;0.90;;
21771;SDS011;11047;47.904;8.110;2023-07-29T00:51:27;0.60;;;0.57;;
21771;SDS011;11047;47.904;8.110;2023-07-29T00:53:54;3.17;;;1.00;;
21771;SDS011;11047;47.904;8.110;2023-07-29T00:56:21;3.22;;;0.85;;
21771;SDS011;11047;47.904;8.110;2023-07-29T00:58:49;3.85;;;0.85;;
21771;SDS011;11047;47.904;8.110;2023-07-29T01:01:21;1.73;;;0.82;;
21771;SDS011;11047;47.904;8.110;2023-07-29T01:03:50;3.22;;;0.90;;
21771;SDS011;11047;47.904;8.110;2023-07-29T01:06:18;1.85;;;0.77;;
21771;SDS011;11047;47.904;8.110;2023-07-29T01:08:51;8.23;;;0.88;;
21771;SDS011;11047;47.904;8.110;2023-07-29T01:11:30;3.88;;;0.70;;
21771;SDS011;11047;47.904;8.110;2023-07-29T01:14:04;9.10;;;0.80;;
21771;SDS011;11047;47.904;8.110;2023-07-29T01:16:39;0.60;;;0.60;;
21771;SDS011;11047;47.904;8.110;2023-07-29T01:19:13;2.65;;;0.73;;
21771;SDS011;11047;47.904;8.110;2023-07-29T01:21:53;17.73;;;1.25;;
21771;SDS011;11047;47.904;8.110;2023-07-29T01:24:22;2.47;;;0.98;;
21771;SDS011;11047;47.904;8.110;2023-07-29T01:26:49;2.47;;;0.80;;
21771;SDS011;11047;47.904;8.110;2023-07-29T01:29:16;6.75;;;0.80;;
21771;SDS011;11047;47.904;8.110;2023-07-29T01:31:43;1.63;;;0.65;;
21771;SDS011;11047;47.904;8.110;2023-07-29T01:34:13;6.47;;;1.00;;
21771;SDS011;11047;47.904;8.110;2023-07-29T01:36:47;4.15;;;1.10;;
21771;SDS011;11047;47.904;8.110;2023-07-29T01:39:16;1.58;;;0.73;;
21771;SDS011;11047;47.904;8.110;2023-07-29T01:41:48;0.70;;;0.70;;
21771;SDS011;11047;47.904;8.110;2023-07-29T01:44:17;0.80;;;0.80;;
21771;SDS011;11047;47.904;8.110;2023-07-29T01:46:45;3.58;;;1.02;;
21771;SDS011;11047;47.904;8.110;2023-07-29T01:49:13;0.85;;;0.70;;
21771;SDS011;11047;47.904;8.110;2023-07-29T01:51:39;2.00;;;0.70;;
21771;SDS011;11047;47.904;8.110;2023-07-29T01:54:06;0.60;;;0.60;;
21771;SDS011;11047;47.904;8.110;2023-07-29T01:56:33;3.40;;;0.75;;
21771;SDS011;11047;47.904;8.110;2023-07-29T01:59:01;1.05;;;0.80;;
21771;SDS011;11047;47.904;8.110;2023-07-29T02:01:28;0.63;;;0.63;;
21771;SDS011;11047;47.904;8.110;2023-07-29T02:03:56;1.00;;;0.70;;
21771;SDS011;11047;47.904;8.110;2023-07-29T02:06:23;4.70;;;0.70;;
21771;SDS011;11047;47.904;8.110;2023-07-29T02:08:50;0.90;;;0.68;;
21771;SDS011;11047;47.904;8.110;2023-07-29T02:11:17;3.70;;;0.88;;
21771;SDS011;11047;47.904;8.110;2023-07-29T02:13:45;2.17;;;0.60;;
21771;SDS011;11047;47.904;8.110;2023-07-29T02:16:13;1.85;;;0.70;;
21771;SDS011;11047;47.904;8.110;2023-07-29T02:18:40;2.67;;;0.70;;
21771;SDS011;11047;47.904;8.110;2023-07-29T02:21:07;0.63;;;0.63;;
21771;SDS011;11047;47.904;8.110;2023-07-29T02:23:34;0.68;;;0.68;;
21771;SDS011;11047;47.904;8.110;2023-07-29T02:26:01;1.73;;;0.80;;
21771;SDS011;11047;47.904;8.110;2023-07-29T02:28:27;2.38;;;0.50;;
21771;SDS011;11047;47.904;8.110;2023-07-29T02:31:08;0.65;;;0.65;;
21771;SDS011;11047;47.904;8.110;2023-07-29T02:33:40;1.55;;;0.70;;
21771;SDS011;11047;47.904;8.110;2023-07-29T02:36:07;0.70;;;0.70;;
21771;SDS011;11047;47.904;8.110;2023-07-29T02:38:34;0.95;;;0.60;;
21771;SDS011;11047;47.904;8.110;2023-07-29T02:41:01;0.50;;;0.50;;
21771;SDS011;11047;47.904;8.110;2023-07-29T02:43:27;0.88;;;0.80;;
21771;SDS011;11047;47.904;8.110;2023-07-29T02:45:54;0.52;;;0.52;;
21771;SDS011;11047;47.904;8.110;2023-07-29T02:48:21;1.13;;;0.50;;
21771;SDS011;11047;47.904;8.110;2023-07-29T02:50:49;1.80;;;0.70;;
21771;SDS011;11047;47.904;8.110;2023-07-29T02:53:16;0.70;;;0.70;;
21771;SDS011;11047;47.904;8.110;2023-07-29T02:55:43;2.30;;;0.77;;
21771;SDS011;11047;47.904;8.110;2023-07-29T02:58:10;0.60;;;0.60;;
21771;SDS011;11047;47.904;8.110;2023-07-29T03:00:37;0.60;;;0.60;;
21771;SDS011;11047;47.904;8.110;2023-07-29T03:03:06;2.90;;;0.60;;
21771;SDS011;11047;47.904;8.110;2023-07-29T03:05:33;1.80;;;0.73;;
21771;SDS011;11047;47.904;8.110;2023-07-29T03:08:01;0.80;;;0.80;;
21771;SDS011;11047;47.904;8.110;2023-07-29T03:10:28;0.55;;;0.55;;
21771;SDS011;11047;47.904;8.110;2023-07-29T03:12:55;1.17;;;0.77;;
21771;SDS011;11047;47.904;8.110;2023-07-29T03:15:23;0.88;;;0.88;;
21771;SDS011;11047;47.904;8.110;2023-07-29T03:17:50;0.80;;;0.70;;
21771;SDS011;11047;47.904;8.110;2023-07-29T03:20:17;1.80;;;0.70;;
21771;SDS011;11047;47.904;8.110;2023-07-29T03:22:45;2.08;;;0.80;;
21771;SDS011;11047;47.904;8.110;2023-07-29T03:25:13;0.73;;;0.73;;
21771;SDS011;11047;47.904;8.110;2023-07-29T03:27:40;1.52;;;0.90;;
21771;SDS011;11047;47.904;8.110;2023-07-29T03:30:07;0.75;;;0.75;;
21771;SDS011;11047;47.904;8.110;2023-07-29T03:32:35;0.85;;;0.85;;
21771;SDS011;11047;47.904;8.110;2023-07-29T03:35:02;1.13;;;0.73;;
21771;SDS011;11047;47.904;8.110;2023-07-29T03:37:29;0.70;;;0.70;;
21771;SDS011;11047;47.904;8.110;2023-07-29T03:39:56;2.20;;;1.00;;
21771;SDS011;11047;47.904;8.110;2023-07-29T03:42:24;0.80;;;0.80;;
21771;SDS011;11047;47.904;8.110;2023-07-29T03:44:51;0.90;;;0.90;;
21771;SDS011;11047;47.904;8.110;2023-07-29T03:47:18;2.00;;;1.00;;
21771;SDS011;11047;47.904;8.110;2023-07-29T03:49:45;2.25;;;0.90;;
21771;SDS011;11047;47.904;8.110;2023-07-29T03:52:11;0.98;;;0.95;;
21771;SDS011;11047;47.904;8.110;2023-07-29T03:54:39;1.67;;;1.00;;
21771;SDS011;11047;47.904;8.110;2023-07-29T03:57:06;1.77;;;0.60;;
21771;SDS011;11047;47.904;8.110;2023-07-29T03:59:34;0.95;;;0.80;;
21771;SDS011;11047;47.904;8.110;2023-07-29T04:02:01;0.90;;;0.80;;
21771;SDS011;11047;47.904;8.110;2023-07-29T04:04:28;0.80;;;0.80;;
21771;SDS011;11047;47.904;8.110;2023-07-29T04:06:54;0.98;;;0.90;;
21771;SDS011;11047;47.904;8.110;2023-07-29T04:09:22;1.55;;;0.80;;
21771;SDS011;11047;47.904;8.110;2023-07-29T04:11:49;2.22;;;1.10;;
21771;SDS011;11047;47.904;8.110;2023-07-29T04:14:16;1.15;;;1.08;;
21771;SDS011;11047;47.904;8.110;2023-07-29T04:16:45;1.15;;;0.90;;
21771;SDS011;11047;47.904;8.110;2023-07-29T04:19:12;1.55;;;0.88;;
21771;SDS011;11047;47.904;8.110;2023-07-29T04:21:38;5.22;;;0.80;;
21771;SDS011;11047;47.904;8.110;2023-07-29T04:24:05;1.52;;;1.00;;
21771;SDS011;11047;47.904;8.110;2023-07-29T04:26:32;1.42;;;0.77;;
21771;SDS011;11047;47.904;8.110;2023-07-29T04:28:59;4.68;;;1.15;;
21771;SDS011;11047;47.904;8.110;2023-07-29T04:31:26;3.00;;;0.88;;
21771;SDS011;11047;47.904;8.110;2023-07-29T04:33:54;2.15;;;0.90;;
21771;SDS011;11047;47.904;8.110;2023-07-29T04:36:21;1.45;;;1.35;;
21771;SDS011;11047;47.904;8.110;2023-07-29T04:38:48;3.53;;;1.83;;
21771;SDS011;11047;47.904;8.110;2023-07-29T04:41:14;1.85;;;1.20;;
21771;SDS011;11047;47.904;8.110;2023-07-29T04:43:41;1.85;;;1.30;;
21771;SDS011;11047;47.904;8.110;2023-07-29T04:46:08;3.92;;;1.80;;
21771;SDS011;11047;47.904;8.110;2023-07-29T04:48:35;3.72;;;1.98;;
21771;SDS011;11047;47.904;8.110;2023-07-29T04:51:03;3.90;;;2.90;;
21771;SDS011;11047;47.904;8.110;2023-07-29T04:53:30;4.72;;;2.70;;
21771;SDS011;11047;47.904;8.110;2023-07-29T04:55:57;2.53;;;2.10;;
21771;SDS011;11047;47.904;8.110;2023-07-29T04:58:24;3.03;;;2.13;;
21771;SDS011;11047;47.904;8.110;2023-07-29T05:00:53;3.78;;;3.10;;
21771;SDS011;11047;47.904;8.110;2023-07-29T05:03:20;3.67;;;2.67;;
21771;SDS011;11047;47.904;8.110;2023-07-29T05:05:47;4.88;;;2.70;;
21771;SDS011;11047;47.904;8.110;2023-07-29T05:08:18;4.28;;;2.63;;
21771;SDS011;11047;47.904;8.110;2023-07-29T05:10:45;3.90;;;2.78;;
21771;SDS011;11047;47.904;8.110;2023-07-29T05:13:15;3.30;;;3.00;;
21771;SDS011;11047;47.904;8.110;2023-07-29T05:15:42;4.15;;;2.20;;
21771;SDS011;11047;47.904;8.110;2023-07-29T05:18:09;3.15;;;2.50;;
21771;SDS011;11047;47.904;8.110;2023-07-29T05:20:36;3.22;;;2.53;;
21771;SDS011;11047;47.904;8.110;2023-07-29T05:23:03;3.97;;;2.42;;
21771;SDS011;11047;47.904;8.110;2023-07-29T05:25:31;2.40;;;2.20;;
21771;SDS011;11047;47.904;8.110;2023-07-29T05:27:59;4.43;;;2.67;;
21771;SDS011;11047;47.904;8.110;2023-07-29T05:30:26;2.65;;;2.15;;
21771;SDS011;11047;47.904;8.110;2023-07-29T05:32:56;3.20;;;2.05;;
21771;SDS011;11047;47.904;8.110;2023-07-29T05:35:23;2.53;;;1.88;;
21771;SDS011;11047;47.904;8.110;2023-07-29T05:37:50;3.88;;;2.13;;
21771;SDS011;11047;47.904;8.110;2023-07-29T05:40:16;2.58;;;2.38;;
21771;SDS011;11047;47.904;8.110;2023-07-29T05:42:45;4.43;;;2.08;;
21771;SDS011;11047;47.904;8.110;2023-07-29T05:45:13;3.42;;;2.13;;
21771;SDS011;11047;47.904;8.110;2023-07-29T05:47:40;2.03;;;1.85;;
21771;SDS011;11047;47.904;8.110;2023-07-29T05:50:07;4.72;;;1.92;;
21771;SDS011;11047;47.904;8.110;2023-07-29T05:52:35;2.38;;;2.10;;
21771;SDS011;11047;47.904;8.110;2023-07-29T05:55:03;2.38;;;1.98;;
21771;SDS011;11047;47.904;8.110;2023-07-29T05:57:30;6.28;;;2.28;;
21771;SDS011;11047;47.904;8.110;2023-07-29T05:59:58;2.10;;;1.88;;
21771;SDS011;11047;47.904;8.110;2023-07-29T06:02:25;2.47;;;2.03;;
21771;SDS011;11047;47.904;8.110;2023-07-29T06:04:52;2.45;;;1.52;;
21771;SDS011;11047;47.904;8.110;2023-07-29T06:07:19;3.03;;;1.92;;
21771;SDS011;11047;47.904;8.110;2023-07-29T06:09:46;4.55;;;2.17;;
21771;SDS011;11047;47.904;8.110;2023-07-29T06:12:13;3.10;;;1.90;;
21771;SDS011;11047;47.904;8.110;2023-07-29T06:14:40;3.40;;;2.28;;
21771;SDS011;11047;47.904;8.110;2023-07-29T06:17:08;3.08;;;1.95;;
21771;SDS011;11047;47.904;8.110;2023-07-29T06:19:36;2.90;;;1.80;;
21771;SDS011;11047;47.904;8.110;2023-07-29T06:22:03;1.98;;;1.83;;
21771;SDS011;11047;47.904;8.110;2023-07-29T06:24:31;3.20;;;1.98;;
21771;SDS011;11047;47.904;8.110;2023-07-29T06:26:58;2.33;;;2.13;;
21771;SDS011;11047;47.904;8.110;2023-07-29T06:29:25;4.22;;;1.90;;
21771;SDS011;11047;47.904;8.110;2023-07-29T06:31:52;4.13;;;2.10;;
21771;SDS011;11047;47.904;8.110;2023-07-29T06:34:21;1.88;;;1.77;;
21771;SDS011;11047;47.904;8.110;2023-07-29T06:36:47;2.90;;;2.05;;
21771;SDS011;11047;47.904;8.110;2023-07-29T06:39:14;2.08;;;1.70;;
21771;SDS011;11047;47.904;8.110;2023-07-29T06:41:41;2.60;;;2.00;;
21771;SDS011;11047;47.904;8.110;2023-07-29T06:44:08;1.92;;;1.73;;
21771;SDS011;11047;47.904;8.110;2023-07-29T06:46:35;2.17;;;1.98;;
21771;SDS011;11047;47.904;8.110;2023-07-29T06:49:02;1.88;;;1.77;;
21771;SDS011;11047;47.904;8.110;2023-07-29T06:51:30;3.17;;;2.20;;
21771;SDS011;11047;47.904;8.110;2023-07-29T06:53:59;3.30;;;1.70;;
21771;SDS011;11047;47.904;8.110;2023-07-29T06:56:26;2.85;;;1.95;;
21771;SDS011;11047;47.904;8.110;2023-07-29T06:58:53;2.92;;;1.80;;
21771;SDS011;11047;47.904;8.110;2023-07-29T07:01:20;2.30;;;2.10;;
21771;SDS011;11047;47.904;8.110;2023-07-29T07:03:47;3.50;;;2.33;;
21771;SDS011;11047;47.904;8.110;2023-07-29T07:06:14;3.47;;;2.25;;
21771;SDS011;11047;47.904;8.110;2023-07-29T07:08:42;11.98;;;3.80;;
21771;SDS011;11047;47.904;8.110;2023-07-29T07:11:09;7.63;;;2.88;;
21771;SDS011;11047;47.904;8.110;2023-07-29T07:13:36;3.35;;;2.60;;
21771;SDS011;11047;47.904;8.110;2023-07-29T07:16:03;3.97;;;2.53;;
21771;SDS011;11047;47.904;8.110;2023-07-29T07:18:30;3.92;;;2.30;;
21771;SDS011;11047;47.904;8.110;2023-07-29T07:20:57;3.70;;;2.35;;
21771;SDS011;11047;47.904;8.110;2023-07-29T07:23:23;4.50;;;2.53;;
21771;SDS011;11047;47.904;8.110;2023-07-29T07:25:52;3.60;;;2.50;;
21771;SDS011;11047;47.904;8.110;2023-07-29T07:28:19;2.88;;;2.45;;
21771;SDS011;11047;47.904;8.110;2023-07-29T07:30:45;4.63;;;2.58;;
21771;SDS011;11047;47.904;8.110;2023-07-29T07:33:12;4.03;;;2.28;;
21771;SDS011;11047;47.904;8.110;2023-07-29T07:35:39;5.38;;;2.95;;
21771;SDS011;11047;47.904;8.110;2023-07-29T07:38:07;3.55;;;2.47;;
21771;SDS011;11047;47.904;8.110;2023-07-29T07:40:34;4.65;;;2.40;;
21771;SDS011;11047;47.904;8.110;2023-07-29T07:43:03;3.47;;;2.75;;
21771;SDS011;11047;47.904;8.110;2023-07-29T07:45:31;3.47;;;2.85;;
21771;SDS011;11047;47.904;8.110;2023-07-29T07:47:58;3.22;;;2.92;;
21771;SDS011;11047;47.904;8.110;2023-07-29T07:50:25;5.72;;;2.83;;
21771;SDS011;11047;47.904;8.110;2023-07-29T07:52:58;5.68;;;2.47;;
21771;SDS011;11047;47.904;8.110;2023-07-29T07:55:25;3.47;;;2.72;;
21771;SDS011;11047;47.904;8.110;2023-07-29T07:57:51;2.75;;;2.40;;
21771;SDS011;11047;47.904;8.110;2023-07-29T08:00:20;3.80;;;2.92;;
21771;SDS011;11047;47.904;8.110;2023-07-29T08:02:47;2.63;;;2.42;;
21771;SDS011;11047;47.904;8.110;2023-07-29T08:05:14;2.60;;;2.40;;
21771;SDS011;11047;47.904;8.110;2023-07-29T08:07:41;2.65;;;2.30;;
21771;SDS011;11047;47.904;8.110;2023-07-29T08:10:08;4.40;;;2.60;;
21771;SDS011;11047;47.904;8.110;2023-07-29T08:12:35;4.72;;;2.72;;
21771;SDS011;11047;47.904;8.110;2023-07-29T08:15:02;3.72;;;2.72;;
21771;SDS011;11047;47.904;8.110;2023-07-29T08:17:31;4.35;;;2.42;;
21771;SDS011;11047;47.904;8.110;2023-07-29T08:19:57;3.10;;;2.60;;
21771;SDS011;11047;47.904;8.110;2023-07-29T08:22:24;2.67;;;2.33;;
21771;SDS011;11047;47.904;8.110;2023-07-29T08:24:51;2.17;;;1.98;;
21771;SDS011;11047;47.904;8.110;2023-07-29T08:27:18;3.40;;;2.10;;
21771;SDS011;11047;47.904;8.110;2023-07-29T08:29:45;2.42;;;2.00;;
21771;SDS011;11047;47.904;8.110;2023-07-29T08:32:12;2.20;;;1.95;;
21771;SDS011;11047;47.904;8.110;2023-07-29T08:34:40;2.45;;;2.25;;
21771;SDS011;11047;47.904;8.110;2023-07-29T08:37:07;4.30;;;2.00;;
21771;SDS011;11047;47.904;8.110;2023-07-29T08:39:34;3.85;;;2.38;;
21771;SDS011;11047;47.904;8.110;2023-07-29T08:42:01;2.78;;;2.13;;
21771;SDS011;11047;47.904;8.110;2023-07-29T08:44:31;2.80;;;2.40;;
21771;SDS011;11047;47.904;8.110;2023-07-29T08:47:02;4.38;;;2.10;;
21771;SDS011;11047;47.904;8.110;2023-07-29T08:49:30;4.25;;;2.08;;
21771;SDS011;11047;47.904;8.110;2023-07-29T08:51:59;2.30;;;2.10;;
21771;SDS011;11047;47.904;8.110;2023-07-29T08:54:27;2.50;;;2.30;;
21771;SDS011;11047;47.904;8.110;2023-07-29T08:56:54;3.50;;;2.83;;
21771;SDS011;11047;47.904;8.110;2023-07-29T08:59:21;4.57;;;2.20;;
21771;SDS011;11047;47.904;8.110;2023-07-29T09:01:48;4.85;;;2.53;;
21771;SDS011;11047;47.904;8.110;2023-07-29T09:04:18;2.42;;;2.15;;
21771;SDS011;11047;47.904;8.110;2023-07-29T09:06:45;2.47;;;2.28;;
21771;SDS011;11047;47.904;8.110;2023-07-29T09:09:17;2.70;;;2.17;;
21771;SDS011;11047;47.904;8.110;2023-07-29T09:11:44;2.65;;;2.28;;
21771;SDS011;11047;47.904;8.110;2023-07-29T09:14:11;2.83;;;2.20;;
21771;SDS011;11047;47.904;8.110;2023-07-29T09:16:39;3.97;;;2.00;;
21771;SDS011;11047;47.904;8.110;2023-07-29T09:19:06;2.60;;;2.30;;
21771;SDS011;11047;47.904;8.110;2023-07-29T09:21:33;3.78;;;2.10;;
21771;SDS011;11047;47.904;8.110;2023-07-29T09:24:02;2.80;;;2.55;;
21771;SDS011;11047;47.904;8.110;2023-07-29T09:26:31;3.10;;;2.35;;
21771;SDS011;11047;47.904;8.110;2023-07-29T09:28:58;2.63;;;2.40;;
21771;SDS011;11047;47.904;8.110;2023-07-29T09:31:27;3.97;;;2.25;;
21771;SDS011;11047;47.904;8.110;2023-07-29T09:33:55;2.65;;;1.90;;
21771;SDS011;11047;47.904;8.110;2023-07-29T09:36:24;2.35;;;1.90;;
21771;SDS011;11047;47.904;8.110;2023-07-29T09:38:55;2.53;;;2.10;;
21771;SDS011;11047;47.904;8.110;2023-07-29T09:41:22;2.30;;;2.10;;
21771;SDS011;11047;47.904;8.110;2023-07-29T09:43:55;2.20;;;2.00;;
21771;SDS011;11047;47.904;8.110;2023-07-29T09:48:52;3.33;;;2.83;;
21771;SDS011;11047;47.904;8.110;2023-07-29T09:51:21;3.25;;;2.95;;
21771;SDS011;11047;47.904;8.110;2023-07-29T09:53:48;2.20;;;1.95;;
21771;SDS011;11047;47.904;8.110;2023-07-29T09:56:16;3.45;;;2.60;;
21771;SDS011;11047;47.904;8.110;2023-07-29T09:58:43;3.22;;;1.95;;
21771;SDS011;11047;47.904;8.110;2023-07-29T10:01:13;3.65;;;2.17;;
21771;SDS011;11047;47.904;8.110;2023-07-29T10:03:40;3.05;;;2.08;;
21771;SDS011;11047;47.904;8.110;2023-07-29T10:06:07;4.65;;;2.38;;
21771;SDS011;11047;47.904;8.110;2023-07-29T10:08:34;4.05;;;2.55;;
21771;SDS011;11047;47.904;8.110;2023-07-29T10:11:03;2.65;;;1.80;;
21771;SDS011;11047;47.904;8.110;2023-07-29T10:13:33;7.82;;;2.30;;
21771;SDS011;11047;47.904;8.110;2023-07-29T10:16:01;3.42;;;2.08;;
21771;SDS011;11047;47.904;8.110;2023-07-29T10:18:30;1.98;;;1.75;;
21771;SDS011;11047;47.904;8.110;2023-07-29T10:20:59;3.67;;;2.13;;
21771;SDS011;11047;47.904;8.110;2023-07-29T10:23:27;2.15;;;1.95;;
21771;SDS011;11047;47.904;8.110;2023-07-29T10:25:58;2.17;;;1.80;;
21771;SDS011;11047;47.904;8.110;2023-07-29T10:28:29;1.92;;;1.75;;
21771;SDS011;11047;47.904;8.110;2023-07-29T10:30:57;1.73;;;1.63;;
21771;SDS011;11047;47.904;8.110;2023-07-29T10:33:24;2.95;;;2.05;;
21771;SDS011;11047;47.904;8.110;2023-07-29T10:35:53;2.10;;;1.85;;
21771;SDS011;11047;47.904;8.110;2023-07-29T10:38:21;1.77;;;1.67;;
21771;SDS011;11047;47.904;8.110;2023-07-29T10:40:50;2.55;;;2.28;;
21771;SDS011;11047;47.904;8.110;2023-07-29T10:43:23;1.80;;;1.70;;
21771;SDS011;11047;47.904;8.110;2023-07-29T10:45:51;2.40;;;1.95;;
21771;SDS011;11047;47.904;8.110;2023-07-29T10:51:26;2.88;;;1.80;;
21771;SDS011;11047;47.904;8.110;2023-07-29T10:53:55;2.90;;;1.88;;
21771;SDS011;11047;47.904;8.110;2023-07-29T10:56:27;1.67;;;1.58;;
21771;SDS011;11047;47.904;8.110;2023-07-29T10:58:56;3.40;;;1.70;;
21771;SDS011;11047;47.904;8.110;2023-07-29T11:01:27;2.67;;;1.58;;
21771;SDS011;11047;47.904;8.110;2023-07-29T11:10:03;2.13;;;1.85;;
21771;SDS011;11047;47.904;8.110;2023-07-29T11:12:35;2.05;;;1.50;;
21771;SDS011;11047;47.904;8.110;2023-07-29T11:15:03;2.85;;;1.55;;
21771;SDS011;11047;47.904;8.110;2023-07-29T11:17:39;1.67;;;1.50;;
21771;SDS011;11047;47.904;8.110;2023-07-29T11:20:07;2.03;;;1.50;;
21771;SDS011;11047;47.904;8.110;2023-07-29T11:22:36;2.60;;;1.70;;
21771;SDS011;11047;47.904;8.110;2023-07-29T11:25:04;2.03;;;1.80;;
21771;SDS011;11047;47.904;8.110;2023-07-29T11:27:32;1.60;;;1.50;;
21771;SDS011;11047;47.904;8.110;2023-07-29T11:30:00;2.00;;;1.63;;
21771;SDS011;11047;47.904;8.110;2023-07-29T11:32:30;1.83;;;1.58;;
21771;SDS011;11047;47.904;8.110;2023-07-29T11:35:00;1.83;;;1.70;;
21771;SDS011;11047;47.904;8.110;2023-07-29T11:37:28;2.15;;;1.65;;
21771;SDS011;11047;47.904;8.110;2023-07-29T11:39:57;1.77;;;1.40;;
21771;SDS011;11047;47.904;8.110;2023-07-29T11:42:24;1.55;;;1.40;;
21771;SDS011;11047;47.904;8.110;2023-07-29T11:44:52;1.67;;;1.58;;
21771;SDS011;11047;47.904;8.110;2023-07-29T11:47:19;1.63;;;1.52;;
21771;SDS011;11047;47.904;8.110;2023-07-29T11:49:47;3.05;;;1.45;;
21771;SDS011;11047;47.904;8.110;2023-07-29T11:52:13;1.70;;;1.60;;
21771;SDS011;11047;47.904;8.110;2023-07-29T11:54:44;2.50;;;1.55;;
21771;SDS011;11047;47.904;8.110;2023-07-29T11:57:13;1.73;;;1.50;;
21771;SDS011;11047;47.904;8.110;2023-07-29T11:59:40;2.83;;;1.90;;
21771;SDS011;11047;47.904;8.110;2023-07-29T12:02:09;1.70;;;1.55;;
21771;SDS011;11047;47.904;8.110;2023-07-29T12:04:37;1.95;;;1.85;;
21771;SDS011;11047;47.904;8.110;2023-07-29T12:07:06;3.13;;;1.60;;
21771;SDS011;11047;47.904;8.110;2023-07-29T12:09:33;1.77;;;1.67;;
21771;SDS011;11047;47.904;8.110;2023-07-29T12:12:00;2.13;;;1.92;;
21771;SDS011;11047;47.904;8.110;2023-07-29T12:14:29;2.78;;;1.63;;
21771;SDS011;11047;47.904;8.110;2023-07-29T12:16:56;1.60;;;1.50;;
21771;SDS011;11047;47.904;8.110;2023-07-29T12:19:30;2.08;;;1.70;;
21771;SDS011;11047;47.904;8.110;2023-07-29T12:21:58;2.42;;;1.77;;
21771;SDS011;11047;47.904;8.110;2023-07-29T12:24:25;1.77;;;1.65;;
21771;SDS011;11047;47.904;8.110;2023-07-29T12:26:52;1.88;;;1.60;;
21771;SDS011;11047;47.904;8.110;2023-07-29T12:29:19;2.70;;;2.00;;
21771;SDS011;11047;47.904;8.110;2023-07-29T12:31:47;3.55;;;1.77;;
21771;SDS011;11047;47.904;8.110;2023-07-29T12:34:17;2.50;;;1.80;;
21771;SDS011;11047;47.904;8.110;2023-07-29T12:36:45;1.92;;;1.70;;
21771;SDS011;11047;47.904;8.110;2023-07-29T12:39:17;3.47;;;2.05;;
21771;SDS011;11047;47.904;8.110;2023-07-29T12:41:45;4.10;;;2.33;;
21771;SDS011;11047;47.904;8.110;2023-07-29T12:44:12;2.20;;;1.52;;
21771;SDS011;11047;47.904;8.110;2023-07-29T12:46:39;2.30;;;1.85;;
21771;SDS011;11047;47.904;8.110;2023-07-29T12:49:07;3.75;;;2.03;;
21771;SDS011;11047;47.904;8.110;2023-07-29T12:51:34;2.05;;;1.85;;
21771;SDS011;11047;47.904;8.110;2023-07-29T12:54:02;1.90;;;1.80;;
21771;SDS011;11047;47.904;8.110;2023-07-29T12:56:29;4.63;;;2.10;;
21771;SDS011;11047;47.904;8.110;2023-07-29T12:58:57;2.47;;;2.10;;
21771;SDS011;11047;47.904;8.110;2023-07-29T13:01:24;2.10;;;1.85;;
21771;SDS011;11047;47.904;8.110;2023-07-29T13:03:51;2.85;;;2.00;;
21771;SDS011;11047;47.904;8.110;2023-07-29T13:06:19;3.72;;;1.95;;
21771;SDS011;11047;47.904;8.110;2023-07-29T13:08:46;3.72;;;2.20;;
21771;SDS011;11047;47.904;8.110;2023-07-29T13:11:14;1.73;;;1.58;;
21771;SDS011;11047;47.904;8.110;2023-07-29T13:13:41;3.42;;;1.98;;
21771;SDS011;11047;47.904;8.110;2023-07-29T13:16:08;4.35;;;1.80;;
21771;SDS011;11047;47.904;8.110;2023-07-29T13:18:35;2.05;;;1.80;;
21771;SDS011;11047;47.904;8.110;2023-07-29T13:21:01;2.20;;;2.00;;
21771;SDS011;11047;47.904;8.110;2023-07-29T13:23:30;4.20;;;2.00;;
21771;SDS011;11047;47.904;8.110;2023-07-29T13:25:57;2.58;;;1.83;;
21771;SDS011;11047;47.904;8.110;2023-07-29T13:28:25;3.55;;;2.15;;
21771;SDS011;11047;47.904;8.110;2023-07-29T13:30:52;1.88;;;1.70;;
21771;SDS011;11047;47.904;8.110;2023-07-29T13:33:19;1.80;;;1.70;;
21771;SDS011;11047;47.904;8.110;2023-07-29T13:35:46;1.65;;;1.55;;
21771;SDS011;11047;47.904;8.110;2023-07-29T13:38:13;2.05;;;1.60;;
21771;SDS011;11047;47.904;8.110;2023-07-29T13:40:41;2.00;;;1.80;;
21771;SDS011;11047;47.904;8.110;2023-07-29T13:43:08;4.65;;;2.88;;
21771;SDS011;11047;47.904;8.110;2023-07-29T13:45:35;2.17;;;1.73;;
21771;SDS011;11047;47.904;8.110;2023-07-29T13:48:05;1.98;;;1.83;;
21771;SDS011;11047;47.904;8.110;2023-07-29T13:50:31;2.28;;;1.77;;
21771;SDS011;11047;47.904;8.110;2023-07-29T13:52:58;3.03;;;1.80;;
21771;SDS011;11047;47.904;8.110;2023-07-29T13:55:25;2.22;;;1.60;;
21771;SDS011;11047;47.904;8.110;2023-07-29T13:57:54;2.33;;;1.80;;
21771;SDS011;11047;47.904;8.110;2023-07-29T14:00:21;2.90;;;1.70;;
21771;SDS011;11047;47.904;8.110;2023-07-29T14:02:47;2.72;;;1.55;;
21771;SDS011;11047;47.904;8.110;2023-07-29T14:05:14;3.08;;;1.60;;
21771;SDS011;11047;47.904;8.110;2023-07-29T14:07:41;2.10;;;1.90;;
21771;SDS011;11047;47.904;8.110;2023-07-29T14:10:08;1.52;;;1.42;;
21771;SDS011;11047;47.904;8.110;2023-07-29T14:12:35;2.00;;;1.80;;
21771;SDS011;11047;47.904;8.110;2023-07-29T14:15:05;1.85;;;1.60;;
21771;SDS011;11047;47.904;8.110;2023-07-29T14:17:33;2.10;;;1.90;;
21771;SDS011;11047;47.904;8.110;2023-07-29T14:20:00;2.90;;;2.05;;
21771;SDS011;11047;47.904;8.110;2023-07-29T14:22:28;2.85;;;1.83;;
21771;SDS011;11047;47.904;8.110;2023-07-29T14:24:54;2.65;;;2.10;;
21771;SDS011;11047;47.904;8.110;2023-07-29T14:27:21;2.17;;;1.80;;
21771;SDS011;11047;47.904;8.110;2023-07-29T14:29:48;2.10;;;1.83;;
21771;SDS011;11047;47.904;8.110;2023-07-29T14:32:16;3.33;;;1.90;;
21771;SDS011;11047;47.904;8.110;2023-07-29T14:34:43;2.60;;;2.33;;
21771;SDS011;11047;47.904;8.110;2023-07-29T14:37:10;3.35;;;2.65;;
21771;SDS011;11047;47.904;8.110;2023-07-29T14:39:37;4.03;;;2.08;;
21771;SDS011;11047;47.904;8.110;2023-07-29T14:42:04;2.92;;;2.33;;
21771;SDS011;11047;47.904;8.110;2023-07-29T14:44:32;2.90;;;2.33;;
21771;SDS011;11047;47.904;8.110;2023-07-29T14:46:59;2.88;;;1.92;;
21771;SDS011;11047;47.904;8.110;2023-07-29T14:49:28;3.30;;;2.05;;
21771;SDS011;11047;47.904;8.110;2023-07-29T14:51:54;4.47;;;2.25;;
21771;SDS011;11047;47.904;8.110;2023-07-29T14:54:21;2.10;;;1.85;;
21771;SDS011;11047;47.904;8.110;2023-07-29T14:56:48;2.70;;;2.17;;
21771;SDS011;11047;47.904;8.110;2023-07-29T14:59:15;2.70;;;1.95;;
21771;SDS011;11047;47.904;8.110;2023-07-29T15:01:42;4.07;;;1.90;;
21771;SDS011;11047;47.904;8.110;2023-07-29T15:04:09;5.20;;;4.43;;